首页
METAR-TAF:

METAR-TAF

机场 :

菲利普戈尔德森国际机场

伯利兹, 伯利兹

纬度: 17-32N, 经度: 088-18W, 海拔: 5米

当前天气观测

该预报发布于6小时和2分钟前的00:00 UTC
静风
温度 28°C
湿度 89%
气压 1012 hPa
能见度10公里或以上
散云层高于1700英尺
小阵雨,

METAR: MZBZ 220000Z 00000KT 9999 -SHRA SCT017 28/26 A2988 Q1012 NOSIG

时间: 00:02 (06:02 UTC)

预报

该预报发布于3小时和2分钟前的03:00 UTC
预报有效从22日的 06点(UTC)到 23日的 06点(UTC)
风速8节,风向
能见度10公里或以上
散云层高于2200英尺
几率 40% :
短暂存在
从 22日的 06点(UTC)到 22日的 15点(UTC)
能見度: 5000
多云层高于1400英尺
阵雨
几率 30% :
短暂存在
从 22日的 09点(UTC)到 22日的 14点(UTC)
风速15节,风向东转东南,有时为25节阵风
能見度: 3000
散云层高于1000英尺, 积雨云.
多云层高于4500英尺
雷暴, 雨,

TAF: MZBZ 220300Z 2206/2306 09008KT 9999 SCT022 PROB40 TEMPO 2206/2215 5000 SHRA BKN014 PROB30 TEMPO 2209/2214 11015G25KT 3000 TSRA SCT010CB BKN045

超过4000个机场的气象观测和天气预报(METAR&TAF报告)。

可查询的气象台以黄色和红色小点在地图上表示。

将鼠标移到小点上方,可查看气象台名称。

然后点击查看天气观测和预报。

如需切换地图:点击带黑十字的绿色按钮放大地图;点击带横线的绿色按钮缩小地图;或者点击绿色箭头查看邻近地区的地图。


METAR-TAF: